Terminal Aerodrome Forecast
Issued by NWS

Home | Current Version | Previous Version | Text Only | Print | Product List | Glossary On
Versions: 1 2 3 4 5 6 7 8 9 10 11 12 13 14 15 16 17 18 19 20 21 22 23 24 25 26 27 28 29 30 31 32 33
000
FTUS46 KMTR 271100
TAFSFO
TAF
KSFO 271138Z 2712/2818 24007KT P6SM FEW008 SCT012 OVC018
     FM271800 20008KT P6SM FEW010 FEW014 SCT020
      TEMPO 2718/2721 BKN020
     FM272100 29017G22KT P6SM FEW015 FEW020
     FM280100 29009KT P6SM FEW010 SCT020
     FM280400 27007KT P6SM FEW008 BKN015
     FM281000 27007KT P6SM FEW007 OVC012=

USA.gov is the U.S. government's official web portal to all federal, state and local government web resources and services.